Chaquiago, Argentina
Current Conditions -  °F | °C
As of 8:00 AM on Thursday 27 Nov 2014 (Local Time) from SANT Reporting Station
Few Clouds Few Clouds  
Wind Chill: 68°   Ceiling: Unl
Heat Index: 68°   Visibility: 6mi
Dew Point: 63°   Wind: 6mph
Humidity: 83%   Direction: 320°NW
Pressure: 30.09"   Gusts: NA
Location:  27.53°S, 66.35°W
Report Text: SANT 271100Z 32005KT 9999 FEW040 FEW10020/17 Q1019
Loading
Personal Weather Stations






























Interactive Weather Map New forecast layout! Learn more

10-Day Weather Forecast

Advertisements
Track Severe Weather on mobile